Time;durP1;ratioP1;P1;durP2;ratioP2;P2;SDS_P1;SDS_P2;PMS_P1;PMS_P2;Temp;Humidity;BMP_temperature;BMP_pressure;BME280_temperature;BME280_humidity;BME280_pressure;Samples;Min_cycle;Max_cycle;Signal;HPM_P1;HPM_P2
2022/05/28 00:01:56;;;;;;;32.50;17.60;;;8.40;99.90;;;;;;4422850;28;657218;-67
2022/05/28 00:04:43;;;;;;;36.93;17.20;;;8.20;99.90;;;;;;4395836;28;659134;-67
2022/05/28 00:07:30;;;;;;;31.77;16.97;;;8.20;99.90;;;;;;4400197;28;658473;-69
2022/05/28 00:10:18;;;;;;;31.30;17.20;;;8.10;99.90;;;;;;4423946;28;658561;-68
2022/05/28 00:13:06;;;;;;;31.02;16.90;;;8.20;99.90;;;;;;4404704;28;657775;-69
2022/05/28 00:15:53;;;;;;;31.10;16.13;;;8.30;99.90;;;;;;4420738;28;658798;-68
2022/05/28 00:18:42;;;;;;;29.97;16.27;;;8.40;99.90;;;;;;4400640;28;657937;-70
2022/05/28 00:21:29;;;;;;;33.27;16.70;;;8.40;99.90;;;;;;4418743;28;657472;-70
2022/05/28 00:24:16;;;;;;;34.10;17.53;;;8.30;99.90;;;;;;4400555;28;657753;-70
2022/05/28 00:27:04;;;;;;;37.67;17.93;;;8.40;99.90;;;;;;4422263;28;658584;-69
2022/05/28 00:29:51;;;;;;;37.27;18.73;;;8.40;99.90;;;;;;4395853;28;657885;-70
2022/05/28 00:32:38;;;;;;;36.30;17.70;;;8.30;99.90;;;;;;4415442;28;658740;-68
2022/05/28 00:35:27;;;;;;;38.57;17.93;;;8.10;99.90;;;;;;4400374;28;657286;-69
2022/05/28 00:38:15;;;;;;;32.13;17.47;;;8.00;99.90;;;;;;4422323;28;659393;-68
2022/05/28 00:41:02;;;;;;;49.83;17.20;;;7.90;99.90;;;;;;4398636;28;658384;-67
2022/05/28 00:43:49;;;;;;;28.13;16.57;;;7.70;99.90;;;;;;4420537;28;657997;-68
2022/05/28 00:46:36;;;;;;;41.93;18.83;;;7.80;99.90;;;;;;4397826;28;657836;-67
2022/05/28 00:49:25;;;;;;;39.30;19.23;;;7.80;99.90;;;;;;4424431;28;658430;-67
2022/05/28 00:52:13;;;;;;;37.43;18.13;;;7.80;99.90;;;;;;4393759;28;659292;-68
2022/05/28 00:55:02;;;;;;;35.27;18.47;;;7.70;99.90;;;;;;4398017;28;657900;-68
2022/05/28 00:57:49;;;;;;;35.83;19.40;;;7.90;99.90;;;;;;4415302;28;657901;-67
2022/05/28 01:00:36;;;;;;;32.25;17.48;;;7.80;99.90;;;;;;4384262;28;657297;-67
2022/05/28 01:03:26;;;;;;;35.17;17.43;;;7.80;99.90;;;;;;4414595;28;657526;-67
2022/05/28 01:06:17;;;;;;;32.67;16.97;;;7.60;99.90;;;;;;4399034;28;658637;-67
2022/05/28 01:09:07;;;;;;;32.07;17.00;;;7.50;99.90;;;;;;4399648;28;657217;-68
2022/05/28 01:11:59;;;;;;;35.72;17.65;;;7.30;99.90;;;;;;4392261;28;657546;-67
2022/05/28 01:14:48;;;;;;;40.80;16.10;;;7.20;99.90;;;;;;4408718;28;658282;-67
2022/05/28 01:17:38;;;;;;;143.93;16.50;;;7.10;99.90;;;;;;4409836;28;657728;-68
2022/05/28 01:20:27;;;;;;;39.57;16.30;;;6.90;99.90;;;;;;4411663;28;658362;-68
2022/05/28 01:23:20;;;;;;;293.70;18.27;;;6.80;99.90;;;;;;4430489;28;658055;-67
2022/05/28 01:26:10;;;;;;;86.77;16.17;;;6.60;99.90;;;;;;4383308;28;659543;-68
2022/05/28 01:29:00;;;;;;;54.50;13.00;;;6.60;99.90;;;;;;4410241;28;657523;-69
2022/05/28 01:31:47;;;;;;;42.87;14.53;;;6.40;99.90;;;;;;4409088;28;658334;-67
2022/05/28 01:34:34;;;;;;;36.03;15.37;;;6.40;99.90;;;;;;4432105;28;657422;-68
2022/05/28 01:37:22;;;;;;;487.33;22.23;;;6.40;99.90;;;;;;4409592;28;658391;-68
2022/05/28 01:40:10;;;;;;;43.73;16.50;;;6.40;99.90;;;;;;4428666;28;659107;-67
2022/05/28 01:42:58;;;;;;;51.47;21.40;;;6.60;99.90;;;;;;4410638;28;658194;-67
2022/05/28 01:45:47;;;;;;;149.17;20.17;;;7.00;99.90;;;;;;4408900;28;658180;-68
2022/05/28 01:48:34;;;;;;;222.13;27.63;;;7.20;99.90;;;;;;4428959;28;658329;-70
2022/05/28 01:51:22;;;;;;;396.85;40.70;;;7.50;99.90;;;;;;4407659;28;658686;-70
2022/05/28 01:54:11;;;;;;;204.00;34.40;;;7.70;99.90;;;;;;4426837;28;658903;-69
2022/05/28 01:56:58;;;;;;;405.50;39.70;;;7.80;99.90;;;;;;4408319;28;659882;-70
2022/05/28 01:59:45;;;;;;;412.27;45.20;;;7.90;99.90;;;;;;4407964;28;658773;-70
2022/05/28 02:02:34;;;;;;;209.10;36.23;;;7.90;99.90;;;;;;4432225;28;658691;-70
2022/05/28 02:05:21;;;;;;;222.23;37.37;;;8.00;99.90;;;;;;4410301;28;658665;-70
2022/05/28 02:08:08;;;;;;;99.83;35.90;;;8.00;99.90;;;;;;4431907;28;659470;-70
2022/05/28 02:11:00;;;;;;;63.03;29.67;;;8.00;99.90;;;;;;4406618;28;657538;-71
2022/05/28 02:13:56;;;;;;;63.20;31.20;;;8.00;99.90;;;;;;4396402;28;658118;-70
2022/05/28 02:16:48;;;;;;;63.17;29.27;;;8.00;99.90;;;;;;4398198;28;657815;-70
2022/05/28 02:19:40;;;;;;;50.80;27.67;;;8.00;99.90;;;;;;4380039;28;657695;-70
2022/05/28 02:22:30;;;;;;;58.50;28.20;;;8.00;99.90;;;;;;4403372;28;658862;-70
2022/05/28 02:25:21;;;;;;;62.80;27.80;;;7.90;99.90;;;;;;4402340;28;657435;-70
2022/05/28 02:28:08;;;;;;;50.73;25.97;;;7.80;99.90;;;;;;4398705;28;658513;-70
2022/05/28 02:31:02;;;;;;;49.07;22.87;;;7.80;99.90;;;;;;4398728;28;657405;-71
2022/05/28 02:33:49;;;;;;;50.90;24.40;;;8.00;99.90;;;;;;4394957;28;658496;-70
2022/05/28 02:36:37;;;;;;;51.93;26.17;;;7.90;99.90;;;;;;4403786;28;657744;-70
2022/05/28 02:39:25;;;;;;;49.87;24.07;;;7.90;99.90;;;;;;4424661;28;657774;-70
2022/05/28 02:42:12;;;;;;;46.80;24.13;;;7.90;99.90;;;;;;4401805;28;657799;-71
2022/05/28 02:44:59;;;;;;;42.17;23.90;;;8.00;99.90;;;;;;4426131;28;657743;-70
2022/05/28 02:47:46;;;;;;;48.83;24.83;;;8.10;99.90;;;;;;4398794;28;657474;-71
2022/05/28 02:50:33;;;;;;;43.57;24.10;;;8.00;99.90;;;;;;4421049;28;658946;-70
2022/05/28 02:53:22;;;;;;;48.07;23.47;;;8.00;99.90;;;;;;4403562;28;657611;-71
2022/05/28 02:56:10;;;;;;;46.93;25.00;;;8.10;99.90;;;;;;4423182;28;658386;-69
2022/05/28 02:58:57;;;;;;;54.97;28.03;;;8.00;99.90;;;;;;4400039;28;657316;-71
2022/05/28 03:01:44;;;;;;;60.88;30.42;;;8.10;99.90;;;;;;4420820;28;657649;-70
2022/05/28 03:04:31;;;;;;;56.97;28.90;;;8.00;99.90;;;;;;4401575;28;657729;-70
2022/05/28 03:07:19;;;;;;;55.27;29.00;;;8.00;99.90;;;;;;4422420;28;657559;-70
2022/05/28 03:10:08;;;;;;;67.57;32.83;;;8.10;99.90;;;;;;4402835;28;657643;-70
2022/05/28 03:12:55;;;;;;;67.53;32.87;;;8.10;99.90;;;;;;4402026;28;657899;-72
2022/05/28 03:15:42;;;;;;;64.70;31.93;;;8.10;99.90;;;;;;4424831;28;658023;-70
2022/05/28 03:18:29;;;;;;;55.03;27.80;;;8.20;99.90;;;;;;4422204;28;657699;-71
2022/05/28 03:21:17;;;;;;;58.47;29.37;;;8.20;99.90;;;;;;4403331;28;658514;-70
2022/05/28 03:24:06;;;;;;;55.33;30.90;;;8.30;99.90;;;;;;4425222;28;657573;-70
2022/05/28 03:26:57;;;;;;;64.47;32.97;;;8.30;99.90;;;;;;4399600;28;658451;-70
2022/05/28 03:29:44;;;;;;;63.13;32.73;;;8.30;99.90;;;;;;4397107;28;657702;-70
2022/05/28 03:32:31;;;;;;;69.63;33.97;;;8.30;99.90;;;;;;4401094;28;657700;-71
2022/05/28 03:35:19;;;;;;;79.03;37.20;;;8.40;99.90;;;;;;4421055;28;657359;-70
2022/05/28 03:38:06;;;;;;;76.77;39.23;;;8.40;99.90;;;;;;4399849;28;657507;-70
2022/05/28 03:40:53;;;;;;;90.67;44.97;;;8.40;99.90;;;;;;4422426;28;657738;-70
2022/05/28 03:43:42;;;;;;;89.90;45.93;;;8.30;99.90;;;;;;4400674;28;658233;-71
2022/05/28 03:46:31;;;;;;;81.77;42.47;;;8.30;99.90;;;;;;4415413;28;658494;-70
2022/05/28 03:49:22;;;;;;;77.20;40.70;;;8.30;99.90;;;;;;4396614;28;658104;-70
2022/05/28 03:52:09;;;;;;;71.27;37.23;;;8.30;99.90;;;;;;4386487;28;657787;-70
2022/05/28 03:54:56;;;;;;;57.50;27.57;;;8.30;99.90;;;;;;4390921;28;658157;-70
2022/05/28 03:57:46;;;;;;;64.10;35.50;;;8.30;99.90;;;;;;4416679;28;658303;-70
2022/05/28 04:00:34;;;;;;;90.43;41.63;;;8.20;99.90;;;;;;4393579;28;658077;-70
2022/05/28 04:03:21;;;;;;;76.73;38.77;;;8.30;99.90;;;;;;4392897;28;658536;-70
2022/05/28 04:06:09;;;;;;;75.43;38.90;;;8.30;99.90;;;;;;4418949;28;658033;-70
2022/05/28 04:08:56;;;;;;;69.97;36.93;;;8.40;99.90;;;;;;4398947;28;657045;-70
2022/05/28 04:11:44;;;;;;;84.80;42.00;;;8.40;99.90;;;;;;4421906;28;658729;-70
2022/05/28 04:14:31;;;;;;;68.77;39.03;;;8.40;99.90;;;;;;4395633;28;657602;-70
2022/05/28 04:17:20;;;;;;;69.77;39.07;;;8.30;99.90;;;;;;4415178;28;657621;-69
2022/05/28 04:20:08;;;;;;;68.00;36.07;;;8.40;99.90;;;;;;4395982;28;657907;-70
2022/05/28 04:22:55;;;;;;;71.40;37.73;;;8.40;99.90;;;;;;4399875;28;658149;-71
2022/05/28 04:25:42;;;;;;;53.30;30.87;;;8.40;99.90;;;;;;4420250;28;658399;-70
2022/05/28 04:28:31;;;;;;;66.60;38.13;;;8.50;99.90;;;;;;4414239;28;658883;-71
2022/05/28 04:31:18;;;;;;;51.97;27.67;;;8.70;99.90;;;;;;4414400;28;658432;-70
2022/05/28 04:34:07;;;;;;;46.43;28.13;;;8.80;99.90;;;;;;4400679;28;658700;-71
2022/05/28 04:36:54;;;;;;;44.97;25.37;;;8.90;99.90;;;;;;4426711;28;657194;-71
2022/05/28 04:39:41;;;;;;;39.43;22.60;;;9.00;99.90;;;;;;4397597;28;657803;-70
2022/05/28 04:42:28;;;;;;;41.80;24.83;;;9.00;99.90;;;;;;4418974;28;657720;-71
2022/05/28 04:45:16;;;;;;;38.77;22.43;;;9.00;99.90;;;;;;4402768;28;657709;-70
2022/05/28 04:48:03;;;;;;;44.17;26.33;;;9.10;99.90;;;;;;4419271;28;658251;-70
2022/05/28 04:50:51;;;;;;;49.57;29.83;;;9.20;99.90;;;;;;4394460;28;658406;-72
2022/05/28 04:53:39;;;;;;;46.60;26.17;;;9.40;99.90;;;;;;4418692;28;657936;-70
2022/05/28 04:56:26;;;;;;;49.38;29.08;;;9.30;99.90;;;;;;4386534;28;657653;-70
2022/05/28 04:59:13;;;;;;;41.60;26.40;;;9.40;99.90;;;;;;4418577;28;658353;-70
2022/05/28 05:02:00;;;;;;;44.20;23.80;;;9.40;99.90;;;;;;4395245;28;657352;-69
2022/05/28 05:04:48;;;;;;;42.10;23.37;;;9.40;99.90;;;;;;4408975;28;658565;-69
2022/05/28 05:07:37;;;;;;;38.20;21.70;;;9.40;99.90;;;;;;4410436;28;657132;-71
2022/05/28 05:10:24;;;;;;;41.10;21.60;;;9.40;99.90;;;;;;4424745;28;657038;-70
2022/05/28 05:13:11;;;;;;;24.43;14.83;;;9.40;99.90;;;;;;4399315;28;658245;-70
2022/05/28 05:15:58;;;;;;;33.27;20.33;;;9.40;99.90;;;;;;4412723;28;658152;-70
2022/05/28 05:18:45;;;;;;;36.80;16.87;;;9.50;99.90;;;;;;4392998;28;657600;-71
2022/05/28 05:21:32;;;;;;;25.37;15.23;;;9.50;99.90;;;;;;4410450;28;658203;-70
2022/05/28 05:24:22;;;;;;;24.40;14.07;;;9.50;99.90;;;;;;4412937;28;658205;-70
2022/05/28 05:27:09;;;;;;;25.03;12.60;;;9.50;99.90;;;;;;4394032;28;658348;-69
2022/05/28 05:29:57;;;;;;;19.07;10.93;;;9.60;99.90;;;;;;4394280;28;658186;-71
2022/05/28 05:32:44;;;;;;;16.13;9.80;;;9.70;99.90;;;;;;4418635;28;657941;-69
2022/05/28 05:35:32;;;;;;;19.00;8.90;;;9.70;99.90;;;;;;4401439;28;657114;-70
2022/05/28 05:38:19;;;;;;;17.57;8.33;;;9.80;99.90;;;;;;4419282;28;658207;-70
2022/05/28 05:41:07;;;;;;;18.37;7.43;;;9.80;99.90;;;;;;4396950;28;656597;-69
2022/05/28 05:43:54;;;;;;;28.67;7.67;;;9.90;99.90;;;;;;4422591;28;655835;-69
2022/05/28 05:46:42;;;;;;;20.47;7.33;;;9.90;99.90;;;;;;4395747;28;656568;-70
2022/05/28 05:49:29;;;;;;;14.67;7.33;;;9.90;99.90;;;;;;4422510;28;657162;-69
2022/05/28 05:52:16;;;;;;;17.23;7.30;;;9.90;99.90;;;;;;4401246;28;656732;-70
2022/05/28 05:55:04;;;;;;;14.87;5.80;;;10.00;99.90;;;;;;4422126;28;657605;-70
2022/05/28 05:57:52;;;;;;;17.15;7.45;;;10.10;99.90;;;;;;4397306;28;657883;-69
2022/05/28 06:00:40;;;;;;;20.93;6.57;;;10.20;99.90;;;;;;4419135;28;658014;-69
2022/05/28 06:03:27;;;;;;;20.40;7.37;;;10.20;99.90;;;;;;4399182;28;658460;-69
2022/05/28 06:06:15;;;;;;;11.03;4.13;;;10.30;99.90;;;;;;4417816;28;658355;-69
2022/05/28 06:09:02;;;;;;;16.87;6.63;;;10.30;99.90;;;;;;4396701;28;657624;-69
2022/05/28 06:11:50;;;;;;;16.77;6.70;;;10.50;99.90;;;;;;4417759;28;657872;-70
2022/05/28 06:14:39;;;;;;;12.67;5.33;;;10.50;99.90;;;;;;4421933;28;657734;-69
2022/05/28 06:17:26;;;;;;;16.27;5.13;;;10.50;99.90;;;;;;4387383;28;657870;-69
2022/05/28 06:20:14;;;;;;;15.23;5.10;;;10.60;99.90;;;;;;4416237;28;658022;-69
2022/05/28 06:23:01;;;;;;;18.40;4.70;;;10.80;99.90;;;;;;4401123;28;657464;-69
2022/05/28 06:25:48;;;;;;;13.93;4.43;;;10.90;99.90;;;;;;4416796;28;658134;-70
2022/05/28 06:28:36;;;;;;;12.73;3.93;;;11.00;99.90;;;;;;4400296;28;659050;-70
2022/05/28 06:31:24;;;;;;;15.80;3.60;;;11.10;99.90;;;;;;4412501;28;658226;-69
2022/05/28 06:34:14;;;;;;;12.87;3.43;;;11.00;99.90;;;;;;4391623;28;658217;-70
2022/05/28 06:37:01;;;;;;;10.82;3.45;;;10.80;99.90;;;;;;4398809;28;657991;-69
2022/05/28 06:39:48;;;;;;;14.03;4.10;;;10.80;99.90;;;;;;4420848;28;657308;-69
2022/05/28 06:42:35;;;;;;;11.75;2.90;;;11.10;99.90;;;;;;4401800;28;657925;-70
2022/05/28 06:45:23;;;;;;;14.73;3.53;;;11.20;99.90;;;;;;4423582;28;657813;-69
2022/05/28 06:48:12;;;;;;;9.47;3.00;;;11.50;99.90;;;;;;4408969;28;657334;-70
2022/05/28 06:51:08;;;;;;;14.13;2.67;;;11.50;99.90;;;;;;4419138;28;656129;-70
2022/05/28 06:53:55;;;;;;;8.90;2.03;;;11.70;99.90;;;;;;4383703;28;657776;-70
2022/05/28 06:56:42;;;;;;;7.20;2.10;;;11.70;99.90;;;;;;4425741;28;656547;-69
2022/05/28 06:59:29;;;;;;;8.27;2.00;;;11.40;99.90;;;;;;4425623;28;655943;-69
2022/05/28 07:02:17;;;;;;;9.20;2.30;;;11.20;99.90;;;;;;4405752;28;657240;-69
2022/05/28 07:05:06;;;;;;;7.73;2.37;;;11.00;99.90;;;;;;4422700;28;656973;-69
2022/05/28 07:07:53;;;;;;;11.00;2.43;;;11.10;99.90;;;;;;4400951;28;656449;-69
2022/05/28 07:10:43;;;;;;;7.87;1.97;;;11.40;99.90;;;;;;4396300;28;657636;-70
2022/05/28 07:13:30;;;;;;;13.20;1.80;;;11.70;99.90;;;;;;4411109;28;656484;-70
2022/05/28 07:16:17;;;;;;;9.63;1.70;;;11.60;99.90;;;;;;4424480;28;658118;-69
2022/05/28 07:19:05;;;;;;;2.37;0.60;;;11.60;99.90;;;;;;4420391;28;656424;-70
2022/05/28 07:21:54;;;;;;;11.47;2.10;;;11.50;99.90;;;;;;4422905;28;656592;-70
2022/05/28 07:24:41;;;;;;;4.20;1.33;;;11.70;99.90;;;;;;4402657;28;658011;-69
2022/05/28 07:27:28;;;;;;;12.30;1.60;;;11.70;99.90;;;;;;4417217;28;656994;-71
2022/05/28 07:30:15;;;;;;;16.27;1.90;;;11.70;99.90;;;;;;4392360;28;657673;-70
2022/05/28 07:33:03;;;;;;;6.93;1.53;;;11.70;99.90;;;;;;4418553;28;658547;-70
2022/05/28 07:35:51;;;;;;;4.30;1.13;;;12.00;99.90;;;;;;4403466;28;656380;-69
2022/05/28 07:38:39;;;;;;;11.60;1.50;;;12.00;99.90;;;;;;4432133;28;657030;-69
2022/05/28 07:41:27;;;;;;;7.57;0.90;;;11.70;99.90;;;;;;4395063;28;657136;-69
2022/05/28 07:44:14;;;;;;;4.80;1.27;;;11.60;99.90;;;;;;4417965;28;656106;-69
2022/05/28 07:47:04;;;;;;;4.20;1.30;;;11.70;99.90;;;;;;4409301;28;656541;-70
2022/05/28 07:49:52;;;;;;;3.70;0.90;;;11.80;99.90;;;;;;4409888;28;656212;-70
2022/05/28 07:52:39;;;;;;;6.33;1.20;;;11.90;99.90;;;;;;4428401;28;656752;-70
2022/05/28 07:55:28;;;;;;;7.30;1.20;;;11.80;99.90;;;;;;4402476;28;657257;-67
2022/05/28 07:58:16;;;;;;;8.65;1.60;;;11.80;99.90;;;;;;4393529;28;658520;-67
2022/05/28 08:01:04;;;;;;;4.73;2.03;;;11.70;99.90;;;;;;4416018;28;657251;-66
2022/05/28 08:03:52;;;;;;;2.37;0.90;;;11.90;99.90;;;;;;4395759;28;657114;-67
2022/05/28 08:06:39;;;;;;;6.87;0.80;;;11.70;99.90;;;;;;4412644;28;655940;-69
2022/05/28 08:09:27;;;;;;;9.70;1.13;;;11.50;99.90;;;;;;4394302;28;656721;-69
2022/05/28 08:12:16;;;;;;;3.53;1.00;;;11.70;99.90;;;;;;4419605;28;656371;-70
2022/05/28 08:15:04;;;;;;;6.80;1.23;;;11.80;99.90;;;;;;4421159;28;656507;-70
2022/05/28 08:17:52;;;;;;;9.07;1.20;;;11.90;99.90;;;;;;4402699;28;657228;-69
2022/05/28 08:23:45;;;;;;;3.83;1.00;;;11.70;98.60;;;;;;4403611;28;656625;-69
2022/05/28 08:26:33;;;;;;;4.23;1.20;;;11.70;99.90;;;;;;4397415;28;657265;-70
2022/05/28 08:29:22;;;;;;;2.67;0.80;;;12.00;99.90;;;;;;4404207;28;656598;-69
2022/05/28 08:32:09;;;;;;;6.47;1.35;;;12.20;99.90;;;;;;4426241;28;656786;-69
2022/05/28 08:34:57;;;;;;;2.17;0.60;;;12.20;99.90;;;;;;4405674;28;656819;-69
2022/05/28 08:37:44;;;;;;;6.10;0.80;;;12.10;97.40;;;;;;4423356;28;656406;-70
2022/05/28 08:40:31;;;;;;;5.33;1.27;;;12.40;97.10;;;;;;4407711;28;656523;-69
2022/05/28 08:43:19;;;;;;;4.13;1.10;;;12.50;99.90;;;;;;4425925;28;657462;-70
2022/05/28 08:46:09;;;;;;;4.73;1.13;;;13.20;95.80;;;;;;4406963;28;656596;-68
2022/05/28 08:48:56;;;;;;;6.73;1.33;;;12.80;93.30;;;;;;4405092;28;656425;-69
2022/05/28 08:51:46;;;;;;;5.27;1.20;;;12.80;95.20;;;;;;4425913;28;657243;-69
2022/05/28 08:54:34;;;;;;;6.17;1.10;;;12.50;99.00;;;;;;4402118;28;657144;-68
2022/05/28 08:57:21;;;;;;;5.40;1.10;;;12.00;95.80;;;;;;4406300;28;656813;-69
2022/05/28 09:00:10;;;;;;;8.47;1.30;;;11.80;99.90;;;;;;4427338;28;656730;-69
2022/05/28 09:03:02;;;;;;;6.80;1.30;;;12.20;99.10;;;;;;4404428;28;657648;-66
2022/05/28 09:05:51;;;;;;;2.87;1.00;;;13.10;99.80;;;;;;4402229;28;656643;-66
2022/05/28 09:08:40;;;;;;;5.83;1.00;;;13.40;95.50;;;;;;4404728;28;656563;-67
2022/05/28 09:11:33;;;;;;;5.63;1.60;;;13.00;93.70;;;;;;4406710;28;657321;-69
2022/05/28 09:14:24;;;;;;;6.50;1.30;;;12.70;93.60;;;;;;4391609;28;656822;-71
2022/05/28 09:17:17;;;;;;;5.47;1.47;;;12.40;93.00;;;;;;4405040;28;656820;-69
2022/05/28 09:20:08;;;;;;;5.17;1.00;;;12.20;95.10;;;;;;4419448;28;656598;-70
2022/05/28 09:22:57;;;;;;;4.47;1.50;;;12.20;94.10;;;;;;4406462;28;656472;-70
2022/05/28 09:25:46;;;;;;;6.47;1.63;;;12.90;99.50;;;;;;4429841;28;656414;-69
2022/05/28 09:28:39;;;;;;;4.37;1.33;;;13.50;90.80;;;;;;4404664;28;656721;-70
2022/05/28 09:31:33;;;;;;;2.77;1.07;;;14.00;85.50;;;;;;4411499;28;656342;-69
2022/05/28 09:34:28;;;;;;;6.33;1.13;;;13.40;78.10;;;;;;4389521;28;656832;-70
2022/05/28 09:37:21;;;;;;;3.27;0.87;;;13.20;83.50;;;;;;4392238;28;656566;-70
2022/05/28 09:40:11;;;;;;;4.30;1.00;;;12.90;84.20;;;;;;4410302;28;656930;-70
2022/05/28 09:43:09;;;;;;;4.87;1.30;;;12.80;88.20;;;;;;4404757;28;657100;-69
2022/05/28 09:46:00;;;;;;;5.47;0.93;;;12.70;89.90;;;;;;4410621;28;656547;-69
2022/05/28 09:48:47;;;;;;;5.27;1.07;;;12.80;92.10;;;;;;4397701;28;657124;-69
2022/05/28 09:51:35;;;;;;;5.60;0.80;;;13.30;85.50;;;;;;4425824;28;656066;-69
2022/05/28 09:54:25;;;;;;;4.23;1.27;;;13.30;84.30;;;;;;4404073;28;657104;-70
2022/05/28 09:57:21;;;;;;;5.80;1.17;;;13.30;78.50;;;;;;4403270;28;657265;-69
2022/05/28 10:00:11;;;;;;;5.47;1.17;;;13.20;89.00;;;;;;4406555;28;656294;-69
2022/05/28 10:06:04;;;;;;;2.57;1.20;;;12.80;90.00;;;;;;4410409;28;656790;-69
2022/05/28 10:08:51;;;;;;;6.43;1.30;;;12.80;89.50;;;;;;4410633;28;656600;-68
2022/05/28 10:11:49;;;;;;;3.50;0.60;;;12.90;93.80;;;;;;4432039;28;657446;-70
2022/05/28 10:14:36;;;;;;;8.90;1.27;;;12.80;77.50;;;;;;4409272;28;656296;-69
2022/05/28 10:17:24;;;;;;;5.50;0.80;;;12.60;73.40;;;;;;4427407;28;657264;-69
2022/05/28 10:20:15;;;;;;;2.93;0.83;;;12.60;72.70;;;;;;4410298;28;656581;-69
2022/05/28 10:23:04;;;;;;;6.23;0.90;;;13.00;73.60;;;;;;4403599;28;656810;-70
2022/05/28 10:25:51;;;;;;;4.47;0.80;;;14.10;68.60;;;;;;4409731;28;656441;-70
2022/05/28 10:28:46;;;;;;;4.23;0.80;;;14.70;71.40;;;;;;4430228;28;657066;-70
2022/05/28 10:31:35;;;;;;;1.03;0.40;;;14.80;65.10;;;;;;4406444;28;656745;-70
2022/05/28 10:34:31;;;;;;;0.67;0.43;;;14.90;65.30;;;;;;4402468;28;657411;-70
2022/05/28 10:37:19;;;;;;;4.30;0.80;;;15.20;63.50;;;;;;4404484;28;656940;-70
2022/05/28 10:40:12;;;;;;;5.10;0.70;;;15.70;65.30;;;;;;4406114;28;656259;-70
2022/05/28 10:43:00;;;;;;;3.80;1.33;;;15.10;61.20;;;;;;4406875;28;656616;-70
2022/05/28 10:45:51;;;;;;;2.27;0.60;;;15.30;60.00;;;;;;4401638;28;656336;-71
2022/05/28 10:48:47;;;;;;;2.17;0.50;;;15.50;60.90;;;;;;4409310;28;656720;-71
2022/05/28 10:51:39;;;;;;;2.10;0.57;;;15.60;60.40;;;;;;4400451;28;657105;-72
2022/05/28 10:54:36;;;;;;;1.10;0.57;;;15.90;63.00;;;;;;4405747;28;656576;-71
2022/05/28 10:57:44;;;;;;;4.13;0.73;;;14.90;60.50;;;;;;4408391;28;657155;-70
2022/05/28 11:00:34;;;;;;;7.33;0.90;;;14.60;65.10;;;;;;4409116;28;657094;-70
2022/05/28 11:03:49;;;;;;;1.70;0.53;;;14.00;69.60;;;;;;4404782;28;657239;-70
2022/05/28 11:06:55;;;;;;;2.07;0.77;;;13.60;65.90;;;;;;4380213;28;657172;-70
2022/05/28 11:09:47;;;;;;;4.70;0.67;;;12.60;73.20;;;;;;4375893;28;656943;-70
2022/05/28 11:12:53;;;;;;;2.93;0.67;;;11.80;81.40;;;;;;4409401;28;656187;-70
2022/05/28 11:15:53;;;;;;;6.73;0.80;;;11.00;97.20;;;;;;4408867;28;657279;-70
2022/05/28 11:18:52;;;;;;;6.90;0.80;;;11.00;99.90;;;;;;4382824;28;656911;-70
2022/05/28 11:22:04;;;;;;;0.87;0.50;;;11.30;99.90;;;;;;4394097;28;656435;-69
2022/05/28 11:24:53;;;;;;;1.90;0.77;;;12.40;99.50;;;;;;4403957;28;656223;-70
2022/05/28 11:27:49;;;;;;;1.77;0.80;;;12.90;97.90;;;;;;4407390;28;656971;-70
2022/05/28 11:30:38;;;;;;;0.60;0.40;;;12.60;91.60;;;;;;4405628;28;656701;-70
2022/05/28 11:33:35;;;;;;;1.17;0.70;;;12.70;82.50;;;;;;4400268;28;656758;-71
2022/05/28 11:36:25;;;;;;;4.40;0.70;;;12.70;86.80;;;;;;4384407;28;657043;-70
2022/05/28 11:39:17;;;;;;;2.90;0.77;;;12.60;83.80;;;;;;4401739;28;657508;-70
2022/05/28 11:42:07;;;;;;;1.13;0.50;;;13.10;79.50;;;;;;4414273;28;656519;-69
2022/05/28 11:44:56;;;;;;;2.43;0.80;;;13.10;79.70;;;;;;4404493;28;656508;-69
2022/05/28 11:47:47;;;;;;;1.23;0.77;;;13.60;81.30;;;;;;4406002;28;657111;-70
2022/05/28 11:53:44;;;;;;;3.73;0.67;;;14.30;70.50;;;;;;4376720;28;656762;-70
2022/05/28 11:56:31;;;;;;;3.33;0.70;;;14.00;72.30;;;;;;4397582;28;656545;-71
2022/05/28 11:59:20;;;;;;;1.83;0.70;;;14.00;74.20;;;;;;4428518;28;657169;-68
2022/05/28 12:02:10;;;;;;;2.67;0.70;;;14.70;72.00;;;;;;4395327;28;657171;-67
2022/05/28 12:04:58;;;;;;;1.70;0.70;;;14.70;73.00;;;;;;4399962;28;657323;-68
2022/05/28 12:07:45;;;;;;;4.17;0.70;;;14.90;69.20;;;;;;4414659;28;656705;-68
2022/05/28 12:10:46;;;;;;;2.27;0.90;;;14.60;75.00;;;;;;4428935;28;657302;-67
2022/05/28 12:13:35;;;;;;;2.23;0.77;;;14.30;71.40;;;;;;4397703;28;656528;-68
2022/05/28 12:16:30;;;;;;;4.57;0.50;;;14.00;73.40;;;;;;4407928;28;656680;-70
2022/05/28 12:19:22;;;;;;;5.60;1.27;;;13.50;73.60;;;;;;4400404;28;656393;-70
2022/05/28 12:22:19;;;;;;;2.63;0.90;;;12.80;77.60;;;;;;4400541;28;656671;-69
2022/05/28 12:25:20;;;;;;;2.17;1.00;;;13.10;81.60;;;;;;4399895;28;656793;-70
2022/05/28 12:28:11;;;;;;;3.03;0.90;;;12.90;84.20;;;;;;4372549;28;657168;-69
2022/05/28 12:31:02;;;;;;;2.10;0.73;;;12.80;86.80;;;;;;4406336;28;657398;-70
2022/05/28 12:33:51;;;;;;;2.47;0.93;;;12.70;84.40;;;;;;4404160;28;657016;-69
2022/05/28 12:36:41;;;;;;;2.30;0.67;;;13.40;82.80;;;;;;4403608;28;657027;-70
2022/05/28 12:39:35;;;;;;;4.53;1.00;;;13.10;83.30;;;;;;4411351;28;656877;-69
2022/05/28 12:42:23;;;;;;;3.20;1.07;;;13.10;83.40;;;;;;4407215;28;656639;-69
2022/05/28 12:45:16;;;;;;;5.97;1.20;;;13.90;88.30;;;;;;4406920;28;656374;-70
2022/05/28 12:48:07;;;;;;;2.47;0.90;;;14.30;83.10;;;;;;4401086;28;656815;-69
2022/05/28 12:51:18;;;;;;;1.97;0.60;;;14.70;75.80;;;;;;4395842;28;657030;-70
2022/05/28 12:54:06;;;;;;;4.63;0.70;;;14.90;68.70;;;;;;4376809;28;656190;-70
2022/05/28 12:57:07;;;;;;;3.03;0.90;;;14.30;72.50;;;;;;4428650;28;657644;-70
2022/05/28 13:00:00;;;;;;;1.20;0.50;;;13.60;72.90;;;;;;4402461;28;656455;-71
2022/05/28 13:02:50;;;;;;;7.13;0.70;;;14.00;79.30;;;;;;4404166;28;656823;-69
2022/05/28 13:05:39;;;;;;;1.93;0.87;;;13.90;77.00;;;;;;4407112;28;657468;-69
2022/05/28 13:08:28;;;;;;;1.90;0.70;;;13.60;71.30;;;;;;4403833;28;656192;-69
2022/05/28 13:11:27;;;;;;;2.57;0.60;;;13.50;71.50;;;;;;4407679;28;656378;-70
2022/05/28 13:14:28;;;;;;;3.27;0.60;;;13.40;74.50;;;;;;4404753;28;656617;-69
2022/05/28 13:17:39;;;;;;;4.07;0.40;;;13.00;73.10;;;;;;4387846;28;656614;-70
2022/05/28 13:20:39;;;;;;;2.20;0.50;;;12.50;75.20;;;;;;4382777;28;656903;-69
2022/05/28 13:23:32;;;;;;;3.60;0.60;;;12.10;90.80;;;;;;4379258;28;657468;-69
2022/05/28 13:26:33;;;;;;;3.27;0.50;;;11.50;92.20;;;;;;4427012;28;656618;-69
2022/05/28 13:29:38;;;;;;;2.07;0.40;;;11.00;96.40;;;;;;4385886;28;657100;-69
2022/05/28 13:32:28;;;;;;;1.97;0.50;;;10.80;99.40;;;;;;4374600;28;656932;-70
2022/05/28 13:35:15;;;;;;;2.88;0.57;;;10.60;99.90;;;;;;4404043;28;656470;-69
2022/05/28 13:38:04;;;;;;;3.40;0.43;;;10.50;99.90;;;;;;4420523;28;656925;-69
2022/05/28 13:40:51;;;;;;;0.83;0.50;;;10.40;99.90;;;;;;4406994;28;656977;-69
2022/05/28 13:43:40;;;;;;;1.43;0.60;;;10.40;99.90;;;;;;4425260;28;656782;-70
2022/05/28 13:46:27;;;;;;;2.27;0.50;;;11.10;99.90;;;;;;4402622;28;657185;-69
2022/05/28 13:49:16;;;;;;;0.50;0.47;;;11.60;99.90;;;;;;4425947;28;655844;-68
2022/05/28 13:52:08;;;;;;;1.80;0.73;;;11.10;99.90;;;;;;4402049;28;656889;-69
2022/05/28 13:54:58;;;;;;;0.80;0.40;;;11.20;99.90;;;;;;4389806;28;657584;-69
2022/05/28 13:57:46;;;;;;;0.97;0.50;;;11.90;99.00;;;;;;4405277;28;656736;-69
2022/05/28 14:00:34;;;;;;;1.10;0.50;;;12.60;94.80;;;;;;4424178;28;656368;-69
2022/05/28 14:03:26;;;;;;;0.93;0.40;;;13.80;93.10;;;;;;4406971;28;656252;-69
2022/05/28 14:06:15;;;;;;;1.30;0.40;;;13.70;81.10;;;;;;4403226;28;657620;-69
2022/05/28 14:09:04;;;;;;;0.67;0.50;;;13.80;87.80;;;;;;4404193;28;657055;-68
2022/05/28 14:11:52;;;;;;;2.90;0.80;;;14.10;84.50;;;;;;4406452;28;657423;-68
2022/05/28 14:14:43;;;;;;;1.80;0.70;;;14.10;80.10;;;;;;4419636;28;656447;-69
2022/05/28 14:17:31;;;;;;;0.83;0.50;;;14.30;81.00;;;;;;4409962;28;656319;-70
2022/05/28 14:20:20;;;;;;;3.50;0.63;;;14.50;75.70;;;;;;4427516;28;657437;-69
2022/05/28 14:23:08;;;;;;;0.60;0.53;;;14.50;76.50;;;;;;4401614;28;657133;-69
2022/05/28 14:25:55;;;;;;;2.57;0.70;;;14.70;73.50;;;;;;4414147;28;657770;-70
2022/05/28 14:28:44;;;;;;;1.67;0.70;;;14.00;79.90;;;;;;4425396;28;657540;-69
2022/05/28 14:31:32;;;;;;;3.00;1.10;;;13.70;77.00;;;;;;4406401;28;657141;-68
2022/05/28 14:34:20;;;;;;;1.33;0.90;;;14.10;80.10;;;;;;4431765;28;656029;-69